createdAt,value
2023-04-08T05:23:54.210Z,47.9
2023-04-08T05:24:56.820Z,47.7
2023-04-08T05:26:10.314Z,47.5
2023-04-08T05:27:12.918Z,47.3
2023-04-08T05:28:26.291Z,47.2
2023-04-08T05:29:38.788Z,47.1
2023-04-08T05:30:52.291Z,47.1
2023-04-08T05:31:54.982Z,46.9
2023-04-08T05:33:08.342Z,46.8
2023-04-08T05:34:20.928Z,47.0
2023-04-08T05:35:24.334Z,47.1
2023-04-08T05:36:36.886Z,46.9
2023-04-08T05:37:50.801Z,46.9
2023-04-08T05:38:53.390Z,46.7
2023-04-08T05:40:06.810Z,46.7
2023-04-08T05:41:19.267Z,46.6
2023-04-08T05:42:32.336Z,46.5
2023-04-08T05:43:34.893Z,46.5
2023-04-08T05:44:48.334Z,46.5
2023-04-08T05:46:00.780Z,46.5
2023-04-08T05:47:04.424Z,46.4
2023-04-08T05:48:16.943Z,46.4
2023-04-08T05:49:30.293Z,46.5
2023-04-08T05:50:32.815Z,46.5
2023-04-08T05:51:45.817Z,46.3
2023-04-08T05:52:58.260Z,46.0
2023-04-08T05:54:11.322Z,45.1
2023-04-08T05:55:13.841Z,44.9
2023-04-08T05:56:27.302Z,44.1
2023-04-08T05:57:39.783Z,43.7
2023-04-08T05:58:52.898Z,42.7
2023-04-08T05:59:55.517Z,42.1
2023-04-08T06:01:08.828Z,40.9
2023-04-08T06:02:21.365Z,40.0
2023-04-08T06:03:24.974Z,39.5
2023-04-08T06:04:37.910Z,38.8
2023-04-08T06:05:51.305Z,38.9
2023-04-08T06:06:54.026Z,38.9
2023-04-08T06:08:07.310Z,38.3
2023-04-08T06:09:19.771Z,38.4
2023-04-08T06:10:32.946Z,38.4
2023-04-08T06:11:35.474Z,38.3
2023-04-08T06:12:48.832Z,38.1
2023-04-08T06:14:01.302Z,38.3
2023-04-08T06:15:04.777Z,38.2
2023-04-08T06:16:19.592Z,38.4
2023-04-08T06:17:24.346Z,38.4
2023-04-08T06:18:36.903Z,38.6
2023-04-08T06:19:50.301Z,38.5
2023-04-08T06:20:52.873Z,38.9
2023-04-08T06:22:06.320Z,39.1
2023-04-08T06:23:18.791Z,39.7
2023-04-08T06:24:31.797Z,39.7
2023-04-08T06:25:34.357Z,40.0
2023-04-08T06:26:47.825Z,39.9
2023-04-08T06:28:00.289Z,40.5
2023-04-08T06:29:03.821Z,40.0
2023-04-08T06:30:16.278Z,40.4
2023-04-08T06:31:29.372Z,40.8
2023-04-08T06:32:41.937Z,40.9
2023-04-08T06:33:45.339Z,40.6
2023-04-08T06:34:57.843Z,40.6
2023-04-08T06:36:11.317Z,40.5
2023-04-08T06:37:13.970Z,40.1
2023-04-08T06:38:27.314Z,40.0
2023-04-08T06:39:39.805Z,39.9
2023-04-08T06:40:53.308Z,39.6
2023-04-08T06:41:55.817Z,38.8
2023-04-08T06:43:09.331Z,38.3
2023-04-08T06:44:21.901Z,38.0
2023-04-08T06:45:25.300Z,37.8
2023-04-08T06:46:37.824Z,38.4
2023-04-08T06:47:51.343Z,37.7
2023-04-08T06:48:53.915Z,37.3
2023-04-08T06:50:07.310Z,37.4
2023-04-08T06:51:19.820Z,37.5
2023-04-08T06:52:23.295Z,37.4
2023-04-08T06:53:35.785Z,37.2
2023-04-08T06:54:49.317Z,37.0
2023-04-08T06:56:01.817Z,36.8
2023-04-08T06:57:05.309Z,36.8
2023-04-08T06:58:17.824Z,36.8
2023-04-08T06:59:31.312Z,36.7
2023-04-08T07:00:33.886Z,36.7
2023-04-08T07:01:47.382Z,36.8
2023-04-08T07:03:00.136Z,36.8
2023-04-08T07:04:03.867Z,36.7
2023-04-08T07:05:16.486Z,36.8
2023-04-08T07:06:29.833Z,36.8
2023-04-08T07:07:32.422Z,36.9
2023-04-08T07:08:46.017Z,36.9
2023-04-08T07:09:58.590Z,36.9
2023-04-08T07:11:11.849Z,37.0
2023-04-08T07:12:14.416Z,37.0
2023-04-08T07:13:27.822Z,37.1
2023-04-08T07:14:40.378Z,37.1
2023-04-08T07:15:43.849Z,37.0
2023-04-08T07:16:56.381Z,37.1
2023-04-08T07:18:09.838Z,37.2
2023-04-08T07:19:12.410Z,37.2
2023-04-08T07:20:25.836Z,37.2
2023-04-08T07:21:38.338Z,37.3
2023-04-08T07:22:51.853Z,37.2
2023-04-08T07:23:54.431Z,37.3
2023-04-08T07:25:07.864Z,37.3
2023-04-08T07:26:20.361Z,37.4
2023-04-08T07:27:23.843Z,37.4
2023-04-08T07:28:36.345Z,37.4
2023-04-08T07:29:49.852Z,37.5
2023-04-08T07:30:52.459Z,37.5
2023-04-08T07:32:05.848Z,37.5
2023-04-08T07:33:18.343Z,37.6
2023-04-08T07:34:31.835Z,37.5
2023-04-08T07:35:34.441Z,37.4
2023-04-08T07:36:47.832Z,37.3
2023-04-08T07:38:00.307Z,37.3
2023-04-08T07:39:03.836Z,37.3
2023-04-08T07:40:16.321Z,37.4
2023-04-08T07:41:29.821Z,37.3
2023-04-08T07:42:32.510Z,37.3
2023-04-08T07:43:45.807Z,37.4
2023-04-08T07:44:58.314Z,36.9
2023-04-08T07:46:11.886Z,37.3
2023-04-08T07:47:14.504Z,37.5
2023-04-08T07:48:27.864Z,37.5
2023-04-08T07:49:40.523Z,37.6
2023-04-08T07:51:08.327Z,37.7
2023-04-08T07:51:53.258Z,37.6
2023-04-08T07:53:07.447Z,37.7
2023-04-08T07:54:11.358Z,37.6
2023-04-08T07:55:24.730Z,37.7
2023-04-08T07:56:37.824Z,37.6
2023-04-08T07:57:40.482Z,37.0
2023-04-08T07:58:54.673Z,37.2
2023-04-08T08:00:07.311Z,37.3
2023-04-08T08:01:20.828Z,37.8
2023-04-08T08:02:23.535Z,37.9
2023-04-08T08:03:37.010Z,37.9
2023-04-08T08:04:49.817Z,37.9
2023-04-08T08:05:53.357Z,37.9
2023-04-08T08:07:05.875Z,37.9
2023-04-08T08:08:19.334Z,37.8
2023-04-08T08:09:21.912Z,37.6
2023-04-08T08:10:35.338Z,37.8
2023-04-08T08:11:47.820Z,37.9
2023-04-08T08:12:51.338Z,37.7
2023-04-08T08:14:03.871Z,37.8
2023-04-08T08:15:17.353Z,37.8
2023-04-08T08:16:29.904Z,38.1
2023-04-08T08:17:33.390Z,38.3
2023-04-08T08:18:45.937Z,38.5
2023-04-08T08:19:59.315Z,38.3
2023-04-08T08:21:01.914Z,38.4
2023-04-08T08:22:15.352Z,38.3
2023-04-08T08:23:27.792Z,37.6
2023-04-08T08:24:31.385Z,37.4
2023-04-08T08:25:43.810Z,36.9
2023-04-08T08:26:56.846Z,37.6
2023-04-08T08:28:09.307Z,37.3
2023-04-08T08:29:12.871Z,37.4
2023-04-08T08:30:25.321Z,37.6
2023-04-08T08:31:38.464Z,37.5
2023-04-08T08:32:41.143Z,37.2
2023-04-08T08:33:54.376Z,37.2
2023-04-08T08:35:06.806Z,37.2
2023-04-08T08:36:19.901Z,37.3
2023-04-08T08:37:22.606Z,37.1
2023-04-08T08:38:35.847Z,37.1
2023-04-08T08:39:48.297Z,37.1
2023-04-08T08:40:51.854Z,36.7
2023-04-08T08:42:04.296Z,36.8
2023-04-08T08:43:17.342Z,36.7
2023-04-08T08:44:19.875Z,36.7
2023-04-08T08:45:33.376Z,36.9
2023-04-08T08:46:45.875Z,36.7
2023-04-08T08:47:59.443Z,36.9
2023-04-08T08:49:02.086Z,36.9
2023-04-08T08:50:15.375Z,37.2
2023-04-08T08:51:27.840Z,37.2
2023-04-08T08:52:31.362Z,37.4
2023-04-08T08:53:43.799Z,37.4
2023-04-08T08:54:57.395Z,37.1
2023-04-08T08:56:17.103Z,37.2
2023-04-08T08:57:11.375Z,36.6
2023-04-08T08:58:24.727Z,37.1
2023-04-08T08:59:37.854Z,37.2
2023-04-08T09:00:40.363Z,37.2
2023-04-08T09:01:53.426Z,37.3
2023-04-08T09:03:06.106Z,37.1
2023-04-08T09:04:09.948Z,37.2
2023-04-08T09:05:22.582Z,37.3
2023-04-08T09:06:35.848Z,37.2
2023-04-08T09:07:38.376Z,37.2
2023-04-08T09:08:51.852Z,36.6
2023-04-08T09:10:04.266Z,36.9
2023-04-08T09:11:17.357Z,36.9
2023-04-08T09:12:19.932Z,37.0
2023-04-08T09:13:33.348Z,36.5
2023-04-08T09:14:45.754Z,36.7
2023-04-08T09:15:48.877Z,35.5
2023-04-08T09:17:01.287Z,35.1
2023-04-08T09:18:15.576Z,35.6
2023-04-08T09:19:18.948Z,35.6
2023-04-08T09:20:32.385Z,35.4
2023-04-08T09:21:44.791Z,35.6
2023-04-08T09:22:57.862Z,35.5
2023-04-08T09:24:00.477Z,35.7
2023-04-08T09:25:13.882Z,35.7
2023-04-08T09:26:26.276Z,35.8
2023-04-08T09:27:29.355Z,35.7
2023-04-08T09:28:41.785Z,35.6
2023-04-08T09:29:54.884Z,35.4
2023-04-08T09:30:57.466Z,35.3
2023-04-08T09:32:10.893Z,35.6
2023-04-08T09:33:34.372Z,35.7
2023-04-08T09:34:28.622Z,35.6
2023-04-08T09:35:41.075Z,35.0
2023-04-08T09:36:54.372Z,35.2
2023-04-08T09:37:56.915Z,35.1
2023-04-08T09:39:10.422Z,35.3
2023-04-08T09:40:42.540Z,35.0
2023-04-08T09:41:36.046Z,34.9
2023-04-08T09:42:38.506Z,34.5
2023-04-08T09:43:52.166Z,33.8
2023-04-08T09:45:04.787Z,34.1
2023-04-08T09:46:07.892Z,34.0
2023-04-08T09:47:20.404Z,34.1
2023-04-08T09:48:33.385Z,34.4
2023-04-08T09:49:45.770Z,34.5
2023-04-08T09:50:48.883Z,34.3
2023-04-08T09:52:01.328Z,34.2
2023-04-08T09:53:14.406Z,34.0
2023-04-08T09:54:16.912Z,34.4
2023-04-08T09:55:39.368Z,34.2
2023-04-08T09:56:42.287Z,34.8
2023-04-08T09:57:55.393Z,35.0
2023-04-08T09:58:57.874Z,34.2
2023-04-08T10:00:11.000Z,34.4
2023-04-08T10:01:23.542Z,34.3
2023-04-08T10:02:27.030Z,35.1
2023-04-08T10:03:39.796Z,35.4
2023-04-08T10:04:53.431Z,35.5
2023-04-08T10:05:56.173Z,35.3
2023-04-08T10:07:09.408Z,35.2
2023-04-08T10:08:21.786Z,35.4
2023-04-08T10:09:25.392Z,35.7
2023-04-08T10:10:37.863Z,35.9
2023-04-08T10:11:50.895Z,36.1
2023-04-08T10:12:53.364Z,36.0
2023-04-08T10:14:06.398Z,35.8
2023-04-08T10:15:18.855Z,35.7
2023-04-08T10:16:51.422Z,35.1
2023-04-08T10:17:34.281Z,35.9
2023-04-08T10:18:47.694Z,35.6
2023-04-08T10:20:00.896Z,35.6
2023-04-08T10:21:22.321Z,35.9
2023-04-08T10:22:15.911Z,36.2
2023-04-08T10:23:28.431Z,36.2
2023-04-08T10:24:31.889Z,35.5
2023-04-08T10:25:44.317Z,34.9
2023-04-08T10:26:59.903Z,35.7
2023-04-08T10:28:02.372Z,35.8
2023-04-08T10:29:15.388Z,35.6
2023-04-08T10:30:27.747Z,35.6
2023-04-08T10:31:33.432Z,35.5
2023-04-08T10:32:46.101Z,35.0
2023-04-08T10:33:59.384Z,34.4
2023-04-08T10:35:02.009Z,33.7
2023-04-08T10:36:15.594Z,34.0
2023-04-08T10:37:28.066Z,34.2
2023-04-08T10:38:31.485Z,33.9
2023-04-08T10:39:43.864Z,34.0
2023-04-08T10:40:56.882Z,34.1
2023-04-08T10:41:59.356Z,33.2
2023-04-08T10:43:12.412Z,33.8
2023-04-08T10:44:24.803Z,33.5
2023-04-08T10:45:37.932Z,34.0
2023-04-08T10:46:40.707Z,34.1
2023-04-08T10:47:54.468Z,33.9
2023-04-08T10:49:07.005Z,33.6
2023-04-08T10:50:10.419Z,34.0
2023-04-08T10:51:22.815Z,34.0
2023-04-08T10:52:36.387Z,33.7
2023-04-08T10:53:39.062Z,33.9
2023-04-08T10:54:52.886Z,33.8
2023-04-08T10:56:05.272Z,33.9
2023-04-08T10:57:08.390Z,34.4
2023-04-08T10:58:20.784Z,34.5
2023-04-08T10:59:34.000Z,33.9
2023-04-08T11:00:46.515Z,34.3
2023-04-08T11:01:49.978Z,33.9
2023-04-08T11:03:02.637Z,33.7
2023-04-08T11:04:16.046Z,34.3
2023-04-08T11:05:18.627Z,34.5
2023-04-08T11:06:32.423Z,34.3
2023-04-08T11:07:44.825Z,34.2
2023-04-08T11:08:48.416Z,34.3
2023-04-08T11:10:00.859Z,33.9
2023-04-08T11:11:13.910Z,33.8
2023-04-08T11:12:16.408Z,34.1
2023-04-08T11:13:29.900Z,34.2
2023-04-08T11:14:42.302Z,33.9
2023-04-08T11:15:55.521Z,34.0
2023-04-08T11:16:58.161Z,33.5
2023-04-08T11:18:11.455Z,34.1
2023-04-08T11:19:23.973Z,34.1
2023-04-08T11:20:27.468Z,34.5
2023-04-08T11:21:39.971Z,34.2
2023-04-08T11:22:53.429Z,33.9
2023-04-08T11:23:55.981Z,33.7
2023-04-08T11:25:09.410Z,33.6
2023-04-08T11:26:21.885Z,33.8
2023-04-08T11:27:35.439Z,33.8
2023-04-08T11:28:38.039Z,34.3
2023-04-08T11:29:51.435Z,34.6
2023-04-08T11:31:03.940Z,34.1
2023-04-08T11:32:07.498Z,34.3
2023-04-08T11:33:20.051Z,34.2
2023-04-08T11:34:33.447Z,34.6
2023-04-08T11:35:35.987Z,34.9
2023-04-08T11:36:49.420Z,35.0
2023-04-08T11:38:01.890Z,35.1
2023-04-08T11:39:06.430Z,35.2
2023-04-08T11:40:18.877Z,35.4
2023-04-08T11:41:31.929Z,35.4
2023-04-08T11:42:34.468Z,35.3
2023-04-08T11:43:47.932Z,35.1
2023-04-08T11:45:00.474Z,35.1
2023-04-08T11:46:14.957Z,35.0
2023-04-08T11:47:17.649Z,35.0
2023-04-08T11:48:30.939Z,34.6
2023-04-08T11:49:33.403Z,34.5
2023-04-08T11:50:46.544Z,34.3
2023-04-08T11:51:58.897Z,34.3
2023-04-08T11:53:12.625Z,33.2
2023-04-08T11:54:15.103Z,33.1
2023-04-08T11:55:28.423Z,33.9
2023-04-08T11:56:40.762Z,33.8
2023-04-08T11:57:43.922Z,34.0
2023-04-08T11:58:56.368Z,33.9
2023-04-08T12:00:09.447Z,33.6
2023-04-08T12:01:21.285Z,33.4
2023-04-08T12:02:24.634Z,33.5
2023-04-08T12:03:37.337Z,32.4
2023-04-08T12:04:50.968Z,33.1
2023-04-08T12:05:53.495Z,33.7
2023-04-08T12:07:07.414Z,33.9
2023-04-08T12:08:19.830Z,33.8
2023-04-08T12:09:22.934Z,34.0
2023-04-08T12:10:35.280Z,34.1
2023-04-08T12:11:48.435Z,34.0
2023-04-08T12:12:50.898Z,34.2
2023-04-08T12:14:03.934Z,34.5
2023-04-08T12:15:16.274Z,33.2
2023-04-08T12:16:29.476Z,34.0
2023-04-08T12:17:32.180Z,34.1
2023-04-08T12:18:45.438Z,34.4
2023-04-08T12:19:57.806Z,34.4
2023-04-08T12:21:00.916Z,34.7
2023-04-08T12:22:32.566Z,34.8
2023-04-08T12:23:25.916Z,34.2
2023-04-08T12:24:39.308Z,34.4
2023-04-08T12:25:42.546Z,34.6
2023-04-08T12:26:54.936Z,34.5
2023-04-08T12:28:09.459Z,34.5
2023-04-08T12:29:11.995Z,33.3
2023-04-08T12:30:25.471Z,34.1
2023-04-08T12:31:37.907Z,34.3
2023-04-08T12:32:41.471Z,33.8
2023-04-08T12:34:03.674Z,34.2
2023-04-08T12:35:06.932Z,34.5
2023-04-08T12:36:10.529Z,34.4
2023-04-08T12:37:25.483Z,34.2
2023-04-08T12:38:27.913Z,34.5
2023-04-08T12:39:40.964Z,34.7
2023-04-08T12:40:53.503Z,34.7
2023-04-08T12:42:06.944Z,35.1
2023-04-08T12:43:09.467Z,34.6
2023-04-08T12:44:22.456Z,34.6
2023-04-08T12:45:34.823Z,34.3
2023-04-08T12:46:38.499Z,34.6
2023-04-08T12:48:00.846Z,33.9
2023-04-08T12:49:06.050Z,34.2
2023-04-08T12:50:09.124Z,34.0
2023-04-08T12:51:22.483Z,34.5
2023-04-08T12:52:44.717Z,34.7
2023-04-08T12:53:38.448Z,34.6
2023-04-08T12:54:50.935Z,34.2
2023-04-08T12:56:04.445Z,34.1
2023-04-08T12:57:06.937Z,34.3
2023-04-08T12:58:21.392Z,34.0
2023-04-08T12:59:34.881Z,34.3
2023-04-08T13:00:38.502Z,33.6
2023-04-08T13:01:51.110Z,33.4
2023-04-08T13:03:04.484Z,33.7
2023-04-08T13:04:26.632Z,34.1
2023-04-08T13:05:26.257Z,34.0
2023-04-08T13:06:35.594Z,33.6
2023-04-08T13:07:38.945Z,33.5
2023-04-08T13:08:51.483Z,34.0
2023-04-08T13:10:04.980Z,34.3
2023-04-08T13:11:07.470Z,34.3
2023-04-08T13:12:20.456Z,34.6
2023-04-08T13:13:32.831Z,34.7
2023-04-08T13:14:45.985Z,34.7
2023-04-08T13:15:48.506Z,34.8
2023-04-08T13:17:01.984Z,34.8
2023-04-08T13:18:14.372Z,34.6
2023-04-08T13:19:17.971Z,34.7
2023-04-08T13:20:30.347Z,34.6
2023-04-08T13:21:45.557Z,34.7
2023-04-08T13:22:48.689Z,34.5
2023-04-08T13:24:02.471Z,34.5
2023-04-08T13:25:14.822Z,34.5
2023-04-08T13:26:19.447Z,34.7
2023-04-08T13:27:31.791Z,34.5
2023-04-08T13:28:56.775Z,34.4
2023-04-08T16:00:38.223Z,36.8
2023-04-08T16:01:10.928Z,36.7
2023-04-08T16:02:23.240Z,36.7
2023-04-08T16:04:35.474Z,36.7
2023-04-08T16:04:39.629Z,36.7
2023-04-08T16:05:52.020Z,36.8
2023-04-08T16:06:55.740Z,36.7
2023-04-08T16:08:08.159Z,36.8
2023-04-08T16:09:21.245Z,36.8
2023-04-08T16:10:42.807Z,36.8
2023-04-08T16:11:36.214Z,36.9
2023-04-08T16:12:48.586Z,37.0
2023-04-08T16:14:01.725Z,37.0
2023-04-08T16:15:33.558Z,37.1
2023-04-08T16:16:17.241Z,37.2
2023-04-08T16:20:55.354Z,37.4
2023-04-08T16:22:07.497Z,37.3
2023-04-08T16:23:59.274Z,37.3
2023-04-08T16:24:22.187Z,37.3
2023-04-08T16:25:34.350Z,37.2
2023-04-08T16:26:48.754Z,37.2
2023-04-08T16:27:51.794Z,37.2
2023-04-08T16:31:36.445Z,37.2
2023-04-08T16:31:39.588Z,37.3
2023-04-08T16:32:32.195Z,37.2
2023-04-08T16:33:46.209Z,37.2
2023-04-08T16:34:49.589Z,37.2
2023-04-08T16:36:03.788Z,37.2
2023-04-08T16:37:15.989Z,37.2
2023-04-08T16:38:19.718Z,37.2
2023-04-08T16:39:31.977Z,37.3
2023-04-08T16:40:49.491Z,37.2
2023-04-08T16:42:01.587Z,37.2
2023-04-08T16:43:14.323Z,37.4
2023-04-08T16:44:08.038Z,37.4
2023-04-08T16:45:21.289Z,37.5
2023-04-08T16:46:33.806Z,37.5
2023-04-08T16:47:37.286Z,37.6
2023-04-08T16:48:49.748Z,37.6
2023-04-08T16:50:13.241Z,37.6
2023-04-08T16:51:05.778Z,37.6
2023-04-08T16:52:19.249Z,37.6
2023-04-08T16:53:32.574Z,37.6
2023-04-08T16:54:35.725Z,37.6
2023-04-08T16:55:48.072Z,37.6
2023-04-08T16:57:10.789Z,37.6
2023-04-08T16:58:13.286Z,37.7
2023-04-08T16:59:16.743Z,37.7
2023-04-08T17:00:29.766Z,37.7
2023-04-08T17:01:42.760Z,37.7
2023-04-08T17:02:45.761Z,37.8
2023-04-08T17:03:59.248Z,37.8
2023-04-08T17:05:11.528Z,37.8
2023-04-08T17:06:14.780Z,37.9
2023-04-08T17:07:27.534Z,38.0
2023-04-08T17:08:51.559Z,38.1
2023-04-08T17:09:44.973Z,38.2
2023-04-08T17:10:58.223Z,38.2
2023-04-08T17:12:10.909Z,38.2
2023-04-08T17:13:15.078Z,38.3
2023-04-08T17:14:27.828Z,38.3
2023-04-08T17:15:41.736Z,38.3
2023-04-08T17:16:44.188Z,38.3
2023-04-08T17:17:57.618Z,38.3
2023-04-08T17:19:09.857Z,38.3
2023-04-08T17:20:13.257Z,38.3
2023-04-08T17:21:25.499Z,38.4
2023-04-08T17:22:38.787Z,38.3
2023-04-08T17:23:41.229Z,38.3
2023-04-08T17:24:54.238Z,38.3
2023-04-08T17:26:06.476Z,38.3
2023-04-08T17:27:19.739Z,38.3
2023-04-08T17:28:22.186Z,38.3
2023-04-08T17:29:35.305Z,38.3
2023-04-08T17:30:47.586Z,38.3
2023-04-08T17:31:50.810Z,38.4
2023-04-08T17:33:03.349Z,38.4
2023-04-08T17:34:16.789Z,38.4
2023-04-08T17:35:19.339Z,38.4
2023-04-08T17:36:32.767Z,38.4
2023-04-08T17:37:45.717Z,38.3
2023-04-08T17:38:50.263Z,38.4
2023-04-08T17:40:02.995Z,38.4
2023-04-08T17:41:29.732Z,38.4
2023-04-08T17:42:18.587Z,38.4
2023-04-08T17:43:30.985Z,38.4
2023-04-08T17:44:44.286Z,38.4
2023-04-08T17:45:46.852Z,38.4
2023-04-08T17:47:00.272Z,38.4
2023-04-08T17:48:12.497Z,38.3
2023-04-08T17:49:25.751Z,38.4
2023-04-08T17:50:28.102Z,38.3
2023-04-08T17:51:41.256Z,38.4
2023-04-08T17:52:53.578Z,38.3
2023-04-08T17:54:06.303Z,38.4
2023-04-08T17:55:08.741Z,38.4
2023-04-08T17:56:21.851Z,38.4
2023-04-08T17:57:34.096Z,38.3
2023-04-08T17:58:37.744Z,38.5
2023-04-08T17:59:50.137Z,38.4
2023-04-08T18:01:23.067Z,38.5
2023-04-08T18:02:05.945Z,38.4
2023-04-08T18:03:18.616Z,38.4
2023-04-08T18:04:31.755Z,38.4
2023-04-08T18:05:34.190Z,38.5
2023-04-08T18:06:47.259Z,38.4
2023-04-08T18:07:59.799Z,38.3
2023-04-08T18:09:13.267Z,38.3
2023-04-08T18:10:15.693Z,38.3
2023-04-08T18:12:28.310Z,38.3
2023-04-08T18:12:41.286Z,38.4
2023-04-08T18:13:43.959Z,38.4
2023-04-08T18:14:57.290Z,38.3
2023-04-08T18:16:09.586Z,38.3
2023-04-08T18:17:23.352Z,38.3
2023-04-08T18:18:35.309Z,38.3
2023-04-08T18:19:39.192Z,38.3
2023-04-08T18:20:51.804Z,38.3
2023-04-08T18:22:14.556Z,38.3
2023-04-08T18:23:07.077Z,38.3
2023-04-08T18:24:20.278Z,38.3
2023-04-08T18:25:42.654Z,38.3
2023-04-08T18:26:36.297Z,38.4
2023-04-08T18:27:48.694Z,38.4
2023-04-08T18:28:52.269Z,38.3
2023-04-08T18:30:05.652Z,38.5
2023-04-08T18:31:18.854Z,38.7
2023-04-08T18:32:21.514Z,38.8
2023-04-08T18:33:43.810Z,39.1
2023-04-08T18:34:46.361Z,39.3
2023-04-08T18:35:59.837Z,39.5
2023-04-08T18:37:02.577Z,39.7
2023-04-08T18:38:16.297Z,39.9
2023-04-08T18:39:28.822Z,40.1
2023-04-08T18:40:32.278Z,40.3
2023-04-08T18:41:44.963Z,40.4
2023-04-08T18:42:58.782Z,40.7
2023-04-08T18:44:01.804Z,40.8
2023-04-08T18:45:15.309Z,41.0
2023-04-08T18:46:27.964Z,41.1
2023-04-08T18:47:32.885Z,41.3
2023-04-08T18:48:47.916Z,41.4
2023-04-08T18:49:51.276Z,41.5
2023-04-08T18:51:03.863Z,41.6
2023-04-08T18:52:17.317Z,41.7
2023-04-08T18:53:20.234Z,41.9
2023-04-08T18:54:33.841Z,42.0
2023-04-08T18:56:15.984Z,42.1
2023-04-08T18:56:59.814Z,42.2
2023-04-08T18:58:02.402Z,42.3
2023-04-08T18:59:16.288Z,42.4
2023-04-08T19:00:38.384Z,42.5
2023-04-08T19:01:33.576Z,42.5
2023-04-08T19:02:46.452Z,42.6
2023-04-08T19:03:59.880Z,42.6
2023-04-08T19:05:02.803Z,42.7
2023-04-08T19:07:43.393Z,42.8
2023-04-08T19:08:36.150Z,42.9
2023-04-08T19:09:54.117Z,42.9
2023-04-08T19:10:57.981Z,42.9
2023-04-08T19:12:06.144Z,43.1
2023-04-08T19:13:37.926Z,43.2
2023-04-08T19:14:22.133Z,43.3
2023-04-08T19:15:34.796Z,43.3
2023-04-08T19:16:49.078Z,43.3
2023-04-08T19:18:10.723Z,43.3
2023-04-08T19:19:04.360Z,43.4
2023-04-08T19:20:36.922Z,43.3
2023-04-08T19:21:30.342Z,43.4
2023-04-08T19:22:33.082Z,43.4
2023-04-08T19:23:46.830Z,43.4
2023-04-08T19:24:59.581Z,43.4
2023-04-08T19:26:04.848Z,43.4
2023-04-08T19:27:17.418Z,43.4
2023-04-08T19:28:31.368Z,43.5
2023-04-08T19:29:35.098Z,43.5
2023-04-08T19:30:51.061Z,43.5
2023-04-08T19:32:13.723Z,43.5
2023-04-08T19:33:08.848Z,43.6
2023-04-08T19:34:11.730Z,43.6
2023-04-08T19:35:26.371Z,43.6
2023-04-08T19:36:39.806Z,43.6
2023-04-08T19:37:52.930Z,43.6
2023-04-08T19:39:06.222Z,43.6
2023-04-08T19:40:10.325Z,43.7
2023-04-08T19:41:13.025Z,43.7
2023-04-08T19:42:26.343Z,43.7
2023-04-08T19:43:39.332Z,43.7
2023-04-08T19:44:43.344Z,43.7
2023-04-08T19:45:55.936Z,43.8
2023-04-08T19:47:09.816Z,43.8
2023-04-08T19:48:12.545Z,43.8
2023-04-08T19:49:27.416Z,43.8
2023-04-08T19:50:40.294Z,43.9
2023-04-08T19:51:44.415Z,43.9
2023-04-08T19:52:57.115Z,43.9
2023-04-08T19:54:10.832Z,43.9
2023-04-08T19:55:13.562Z,43.9
2023-04-08T19:56:27.349Z,44.0
2023-04-08T19:57:39.986Z,44.0
2023-04-08T19:58:43.345Z,44.0
2023-04-08T19:59:56.027Z,44.1
2023-04-08T20:01:09.831Z,44.0
2023-04-08T20:02:12.685Z,44.1
2023-04-08T20:03:26.634Z,44.1
2023-04-08T20:04:39.741Z,44.1
2023-04-08T20:05:43.849Z,44.1
2023-04-08T20:06:56.500Z,44.1
2023-04-08T20:08:11.348Z,44.2
2023-04-08T20:09:14.208Z,44.2
2023-04-08T20:10:27.842Z,44.2
2023-04-08T20:11:41.256Z,44.2
2023-04-08T20:13:03.851Z,44.3
2023-04-08T20:13:56.817Z,44.3
2023-04-08T20:15:22.973Z,44.3
2023-04-08T20:16:17.262Z,44.3
2023-04-08T20:17:30.907Z,44.3
2023-04-08T20:18:33.851Z,44.2
2023-04-08T20:19:48.831Z,44.2
2023-04-08T20:21:01.498Z,44.2
2023-04-08T20:22:06.240Z,44.2
2023-04-08T20:23:18.937Z,44.2
2023-04-08T20:24:32.361Z,44.2
2023-04-08T20:25:35.107Z,44.2
2023-04-08T20:26:48.880Z,44.2
2023-04-08T20:28:01.556Z,44.2
2023-04-08T20:29:06.817Z,44.2
2023-04-08T20:30:19.476Z,44.3
2023-04-08T20:31:23.362Z,44.3
2023-04-08T20:32:36.160Z,44.2
2023-04-08T20:33:49.879Z,44.3
2023-04-08T20:34:53.019Z,44.3
2023-04-08T20:36:06.872Z,44.3
2023-04-08T20:37:19.623Z,44.3
2023-04-08T20:38:23.330Z,44.3
2023-04-08T20:39:35.973Z,44.3
2023-04-08T20:40:49.339Z,44.3
2023-04-08T20:41:52.047Z,44.3
2023-04-08T20:43:05.345Z,44.3
2023-04-08T20:44:18.137Z,44.3
2023-04-08T20:45:32.898Z,44.3
2023-04-08T20:46:35.691Z,44.3
2023-04-08T20:47:59.961Z,44.3
2023-04-08T20:48:53.251Z,44.4
2023-04-08T20:50:06.865Z,44.3
2023-04-08T20:51:19.524Z,44.4
2023-04-08T20:52:23.427Z,44.4
2023-04-08T20:53:36.095Z,44.3
2023-04-08T20:54:49.439Z,44.4
2023-04-08T20:55:52.349Z,44.4
2023-04-08T20:57:06.566Z,44.4
2023-04-08T20:58:30.243Z,44.4
2023-04-08T20:59:25.881Z,44.4
2023-04-08T21:00:39.353Z,44.4
2023-04-08T21:01:42.896Z,44.4
2023-04-08T21:03:04.937Z,44.4
2023-04-08T21:04:08.894Z,44.4
2023-04-08T21:05:11.634Z,44.4
2023-04-08T21:06:25.355Z,44.4
2023-04-08T21:07:38.559Z,44.4
2023-04-08T21:08:42.852Z,44.4
2023-04-08T21:09:55.530Z,44.4
2023-04-08T21:11:10.386Z,44.4
2023-04-08T21:12:13.201Z,44.4
2023-04-08T21:13:26.896Z,44.4
2023-04-08T21:14:39.783Z,44.5
2023-04-08T21:15:44.045Z,44.4
2023-04-08T21:16:57.473Z,44.4
2023-04-08T21:18:31.435Z,44.5
2023-04-08T21:19:14.316Z,44.5
2023-04-08T21:20:27.024Z,44.5
2023-04-08T21:21:50.887Z,44.5
2023-04-08T21:22:43.701Z,44.5
2023-04-08T21:24:36.888Z,44.5
2023-04-08T21:25:09.827Z,44.5
2023-04-08T21:26:12.587Z,44.5
2023-04-08T21:27:37.357Z,44.4
2023-04-08T21:28:40.083Z,44.4
2023-04-08T21:29:43.880Z,44.4
2023-04-08T21:30:56.547Z,44.3
2023-04-08T21:32:09.964Z,44.4
2023-04-08T21:33:12.856Z,44.4
2023-04-08T21:34:26.379Z,44.4
2023-04-08T21:35:39.150Z,44.3
2023-04-08T21:36:53.754Z,44.4
2023-04-08T21:38:06.074Z,44.4
2023-04-08T21:39:09.867Z,44.5
2023-04-08T21:40:12.577Z,44.5
2023-04-08T21:41:26.835Z,44.4
2023-04-08T21:42:40.499Z,44.4
2023-04-08T21:43:43.876Z,44.4
2023-04-08T21:44:56.580Z,44.5
2023-04-08T21:46:09.909Z,44.4
2023-04-08T21:47:12.771Z,44.4
2023-04-08T21:48:26.403Z,44.5
2023-04-08T21:49:39.120Z,44.5
2023-04-08T21:50:52.609Z,44.5
2023-04-08T21:51:55.355Z,44.5
2023-04-08T21:53:08.912Z,44.5
2023-04-08T21:54:31.014Z,44.6
2023-04-08T21:55:25.489Z,44.5
2023-04-08T21:56:38.417Z,44.6
2023-04-08T21:57:51.868Z,44.6
2023-04-08T21:58:54.624Z,44.5
2023-04-08T22:00:07.939Z,44.5
2023-04-08T22:01:20.765Z,44.6
2023-04-08T22:02:34.472Z,44.6
2023-04-08T22:03:37.357Z,44.6
2023-04-08T22:04:50.899Z,44.6
2023-04-08T22:06:03.913Z,44.6
2023-04-08T22:07:07.389Z,44.6
2023-04-08T22:08:20.093Z,44.6
2023-04-08T22:09:33.905Z,44.6
2023-04-08T22:10:37.243Z,44.6
2023-04-08T22:11:50.901Z,44.7
2023-04-08T22:13:13.090Z,44.6
2023-04-08T22:14:06.986Z,44.6
2023-04-08T22:15:19.692Z,44.6
2023-04-08T22:16:33.433Z,44.7
2023-04-08T22:17:36.296Z,44.7
2023-04-08T22:19:09.902Z,44.6
2023-04-08T22:20:02.706Z,44.7
2023-04-08T22:21:05.454Z,44.7
2023-04-08T22:22:18.896Z,44.7
2023-04-08T22:23:31.573Z,44.6
2023-04-08T22:24:44.918Z,44.6
2023-04-08T22:25:47.640Z,44.6
2023-04-08T22:27:00.929Z,44.6
2023-04-08T22:28:13.594Z,44.6
2023-04-08T22:29:17.652Z,44.6
2023-04-08T22:30:30.483Z,44.6
2023-04-08T22:31:44.463Z,44.6
2023-04-08T22:32:47.353Z,44.6
2023-04-08T22:34:00.893Z,44.6
2023-04-08T22:35:13.636Z,44.7
2023-04-08T22:36:17.434Z,44.7
2023-04-08T22:37:30.107Z,44.6
2023-04-08T22:38:43.409Z,44.7
2023-04-08T22:39:46.413Z,44.7
2023-04-08T22:40:59.946Z,44.7
2023-04-08T22:42:12.735Z,44.7
2023-04-08T22:43:16.398Z,44.7
2023-04-08T22:44:29.058Z,44.7
2023-04-08T22:45:42.395Z,44.7
2023-04-08T22:46:45.129Z,44.8
2023-04-08T22:47:58.545Z,44.7
2023-04-08T22:49:11.352Z,44.7
2023-04-08T22:50:24.883Z,44.7
2023-04-08T22:51:27.629Z,44.7
2023-04-08T22:52:40.898Z,44.7
2023-04-08T22:53:53.583Z,44.7
2023-04-08T22:54:56.933Z,44.8
2023-04-08T22:56:09.602Z,44.8
2023-04-08T22:57:22.907Z,44.8
2023-04-08T22:58:25.663Z,44.8
2023-04-08T22:59:39.407Z,44.8
2023-04-08T23:00:52.097Z,44.8
2023-04-08T23:02:05.473Z,44.8
2023-04-08T23:03:08.409Z,44.8
2023-04-08T23:04:21.928Z,44.8
2023-04-08T23:05:34.721Z,44.8
2023-04-08T23:06:38.402Z,44.8
2023-04-08T23:07:51.100Z,44.8
2023-04-08T23:09:04.425Z,44.8
2023-04-08T23:10:07.161Z,44.8
2023-04-08T23:11:20.407Z,44.8
2023-04-08T23:12:33.110Z,44.8
2023-04-08T23:13:36.936Z,44.8
2023-04-08T23:14:49.635Z,44.8
2023-04-08T23:16:03.747Z,44.8
2023-04-08T23:17:06.676Z,44.8
2023-04-08T23:18:20.421Z,44.8
2023-04-08T23:19:33.083Z,44.8
2023-04-08T23:20:46.430Z,44.8
2023-04-08T23:21:49.181Z,44.8
2023-04-08T23:23:02.931Z,44.9
2023-04-08T23:24:15.763Z,44.8
2023-04-08T23:25:19.416Z,44.8
2023-04-08T23:26:32.225Z,44.8
2023-04-08T23:27:45.929Z,44.8
2023-04-08T23:28:48.769Z,44.8
2023-04-08T23:30:02.464Z,44.9